Time;durP1;ratioP1;P1;durP2;ratioP2;P2;SDS_P1;SDS_P2;PMS_P1;PMS_P2;Temp;Humidity;BMP_temperature;BMP_pressure;BME280_temperature;BME280_humidity;BME280_pressure;Samples;Min_cycle;Max_cycle;Signal;HPM_P1;HPM_P2
2021/04/20 00:00:36;;;;;;;12.80;11.70;;;;;21.30;100750.00;;;;2078936;28;20210;-66
2021/04/20 00:01:37;;;;;;;12.07;11.07;;;;;21.30;100749.00;;;;2078826;28;20219;-66
2021/04/20 00:02:37;;;;;;;13.10;12.00;;;;;21.30;100747.00;;;;2074832;28;20217;-66
2021/04/20 00:03:38;;;;;;;12.30;11.30;;;;;21.30;100754.00;;;;2079383;28;20222;-66
2021/04/20 00:04:38;;;;;;;13.30;12.17;;;;;21.30;100747.00;;;;2078772;28;20210;-65
2021/04/20 00:05:38;;;;;;;12.47;11.40;;;;;21.30;100747.00;;;;2078788;28;20210;-66
2021/04/20 00:06:39;;;;;;;12.90;11.80;;;;;21.30;100742.00;;;;2076863;28;20214;-66
2021/04/20 00:07:39;;;;;;;12.90;11.80;;;;;21.30;100745.00;;;;2077882;28;20223;-66
2021/04/20 00:08:40;;;;;;;12.77;11.67;;;;;21.30;100747.00;;;;2072779;28;20220;-66
2021/04/20 00:09:40;;;;;;;12.90;11.80;;;;;21.30;100737.00;;;;2076927;28;20787;-66
2021/04/20 00:10:41;;;;;;;12.87;11.37;;;;;21.30;100743.00;;;;2078896;28;20223;-66
2021/04/20 00:11:41;;;;;;;12.87;11.77;;;;;21.30;100739.00;;;;2070683;28;20987;-66
2021/04/20 00:12:42;;;;;;;12.30;11.27;;;;;21.30;100738.00;;;;2078824;28;20226;-66
2021/04/20 00:13:42;;;;;;;13.10;11.90;;;;;21.30;100741.00;;;;2075582;28;20226;-66
2021/04/20 00:14:42;;;;;;;12.60;11.60;;;;;21.20;100736.00;;;;2078764;28;20620;-66
2021/04/20 00:15:43;;;;;;;13.20;12.00;;;;;21.30;100742.00;;;;2077076;28;20700;-66
2021/04/20 00:16:43;;;;;;;12.70;11.60;;;;;21.30;100740.00;;;;2079676;28;20697;-65
2021/04/20 00:17:44;;;;;;;11.73;10.83;;;;;21.20;100732.00;;;;2078823;28;20226;-66
2021/04/20 00:18:44;;;;;;;11.93;10.83;;;;;21.20;100738.00;;;;2078459;28;20214;-66
2021/04/20 00:19:45;;;;;;;12.73;11.73;;;;;21.20;100738.00;;;;2078795;28;20215;-66
2021/04/20 00:20:45;;;;;;;11.97;10.97;;;;;21.20;100735.00;;;;2077874;28;20261;-66
2021/04/20 00:21:45;;;;;;;11.57;10.47;;;;;21.20;100736.00;;;;2078438;28;20210;-66
2021/04/20 00:22:46;;;;;;;12.60;11.40;;;;;21.20;100737.00;;;;2078806;28;20214;-66
2021/04/20 00:23:46;;;;;;;11.43;10.43;;;;;21.20;100731.00;;;;2079352;28;20263;-66
2021/04/20 00:24:47;;;;;;;11.40;10.50;;;;;21.20;100736.00;;;;2079428;28;20727;-66
2021/04/20 00:25:47;;;;;;;12.00;10.97;;;;;21.20;100732.00;;;;2079300;28;20624;-66
2021/04/20 00:26:47;;;;;;;11.83;10.77;;;;;21.20;100736.00;;;;2079504;28;20206;-66
2021/04/20 00:27:48;;;;;;;12.17;11.17;;;;;21.20;100730.00;;;;2079537;28;20971;-66
2021/04/20 00:28:48;;;;;;;11.47;10.47;;;;;21.20;100726.00;;;;2078505;28;20230;-65
2021/04/20 00:29:48;;;;;;;12.20;11.10;;;;;21.20;100726.00;;;;2070698;28;20222;-66
2021/04/20 00:30:49;;;;;;;12.80;11.67;;;;;21.20;100729.00;;;;2078661;28;20301;-66
2021/04/20 00:31:49;;;;;;;12.20;11.20;;;;;21.20;100717.00;;;;2079462;28;20206;-66
2021/04/20 00:32:49;;;;;;;12.20;11.07;;;;;21.20;100718.00;;;;2079400;28;20211;-66
2021/04/20 00:33:50;;;;;;;11.77;10.77;;;;;21.20;100726.00;;;;2077867;28;20261;-66
2021/04/20 00:34:50;;;;;;;11.70;10.70;;;;;21.20;100715.00;;;;2078653;28;20209;-66
2021/04/20 00:35:50;;;;;;;12.60;11.50;;;;;21.10;100714.00;;;;2079115;28;20218;-66
2021/04/20 00:36:51;;;;;;;12.17;11.17;;;;;21.20;100719.00;;;;2079502;28;20238;-66
2021/04/20 00:37:51;;;;;;;11.20;10.30;;;;;21.20;100717.00;;;;2079390;28;20829;-66
2021/04/20 00:38:51;;;;;;;12.10;11.20;;;;;21.20;100718.00;;;;2078670;28;20821;-66
2021/04/20 00:39:52;;;;;;;11.63;10.63;;;;;21.20;100710.00;;;;2079274;28;20655;-65
2021/04/20 00:40:52;;;;;;;11.70;10.70;;;;;21.10;100723.00;;;;2079505;28;20688;-65
2021/04/20 00:42:00;;;;;;;12.53;11.50;;;;;21.10;100710.00;;;;2078569;28;20723;-65
2021/04/20 00:43:00;;;;;;;11.80;10.70;;;;;21.10;100706.00;;;;2078752;28;20221;-66
2021/04/20 00:44:01;;;;;;;11.40;10.40;;;;;21.10;100707.00;;;;2079236;28;20304;-65
2021/04/20 00:45:01;;;;;;;12.20;11.10;;;;;21.10;100704.00;;;;2078555;28;20238;-66
2021/04/20 00:46:02;;;;;;;11.57;10.60;;;;;21.10;100701.00;;;;2078672;28;20229;-66
2021/04/20 00:47:03;;;;;;;12.07;11.07;;;;;21.10;100702.00;;;;2079455;28;20615;-66
2021/04/20 00:48:03;;;;;;;13.27;12.17;;;;;21.10;100709.00;;;;2078802;28;20535;-66
2021/04/20 00:49:04;;;;;;;11.10;10.20;;;;;21.10;100710.00;;;;2078398;28;20219;-65
2021/04/20 00:50:05;;;;;;;12.30;11.30;;;;;21.10;100693.00;;;;2079317;28;20676;-66
2021/04/20 00:51:06;;;;;;;11.70;10.70;;;;;21.10;100708.00;;;;2078491;28;20292;-66
2021/04/20 00:52:06;;;;;;;11.27;10.37;;;;;21.10;100705.00;;;;2070643;28;20728;-66
2021/04/20 00:53:08;;;;;;;11.67;10.70;;;;;21.10;100711.00;;;;2078613;28;20746;-66
2021/04/20 00:54:08;;;;;;;11.95;10.95;;;;;21.10;100705.00;;;;2078728;28;20218;-66
2021/04/20 00:55:09;;;;;;;11.80;10.80;;;;;21.10;100702.00;;;;2070435;28;20257;-66
2021/04/20 00:56:09;;;;;;;11.80;10.80;;;;;21.10;100710.00;;;;2078749;28;20218;-66
2021/04/20 00:57:10;;;;;;;11.97;11.00;;;;;21.10;100707.00;;;;2072180;28;20461;-66
2021/04/20 00:58:10;;;;;;;11.50;10.50;;;;;21.10;100706.00;;;;2072144;28;20265;-66
2021/04/20 00:59:11;;;;;;;11.30;10.40;;;;;21.10;100700.00;;;;2080586;28;20217;-66
2021/04/20 01:00:15;;;;;;;11.50;10.60;;;;;21.10;100702.00;;;;2080451;28;20213;-65
2021/04/20 01:01:16;;;;;;;11.95;10.93;;;;;21.10;100704.00;;;;2072383;28;20211;-67
2021/04/20 01:02:16;;;;;;;11.50;10.50;;;;;20.90;100696.00;;;;2072148;28;20578;-66
2021/04/20 01:03:16;;;;;;;12.03;11.10;;;;;21.10;100701.00;;;;2076892;28;20230;-66
2021/04/20 01:04:17;;;;;;;11.87;10.87;;;;;21.10;100704.00;;;;2081011;28;20225;-66
2021/04/20 01:05:21;;;;;;;11.30;10.40;;;;;21.10;100694.00;;;;2080011;28;20221;-66
2021/04/20 01:06:21;;;;;;;12.38;11.27;;;;;21.10;100695.00;;;;2080231;28;20210;-66
2021/04/20 01:07:22;;;;;;;11.90;10.90;;;;;21.10;100703.00;;;;2079603;28;20228;-66
2021/04/20 01:08:24;;;;;;;11.90;11.00;;;;;21.10;100680.00;;;;2073676;28;20226;-66
2021/04/20 01:09:27;;;;;;;11.77;10.85;;;;;21.10;100697.00;;;;2079876;28;20597;-66
2021/04/20 01:10:27;;;;;;;11.40;10.40;;;;;21.00;100703.00;;;;2064330;28;20231;-65
2021/04/20 01:11:28;;;;;;;12.03;10.83;;;;;21.00;100703.00;;;;2059813;28;20217;-66
2021/04/20 01:12:29;;;;;;;11.10;10.30;;;;;21.00;100699.00;;;;2055961;28;20215;-66
2021/04/20 01:13:30;;;;;;;12.23;11.07;;;;;20.90;100702.00;;;;2071083;28;20231;-66
2021/04/20 01:14:31;;;;;;;11.95;11.05;;;;;21.00;100700.00;;;;2075621;28;20223;-66
2021/04/20 01:15:32;;;;;;;11.20;10.30;;;;;21.00;100696.00;;;;2072194;28;20210;-66
2021/04/20 01:16:33;;;;;;;11.18;10.20;;;;;21.00;100702.00;;;;2068370;28;20581;-66
2021/04/20 01:17:33;;;;;;;12.13;11.03;;;;;21.00;100695.00;;;;2080414;28;20223;-65
2021/04/20 01:18:37;;;;;;;11.13;10.13;;;;;21.00;100697.00;;;;2080815;28;20214;-66
2021/04/20 01:19:37;;;;;;;11.20;10.20;;;;;21.00;100700.00;;;;2080733;28;20222;-66
2021/04/20 01:20:42;;;;;;;11.53;10.53;;;;;20.90;100701.00;;;;2072059;28;20289;-66
2021/04/20 01:21:42;;;;;;;11.50;10.60;;;;;21.00;100695.00;;;;2072299;28;20214;-66
2021/04/20 01:22:43;;;;;;;11.80;10.80;;;;;21.00;100701.00;;;;2071917;28;20581;-66
2021/04/20 01:24:06;;;;;;;11.27;10.40;;;;;21.00;100692.00;;;;2055981;28;20227;-66
2021/04/20 01:25:08;;;;;;;11.77;10.77;;;;;21.00;100699.00;;;;2074923;28;20299;-66
2021/04/20 01:26:08;;;;;;;12.02;11.02;;;;;21.00;100699.00;;;;2080709;28;20924;-66
2021/04/20 01:27:08;;;;;;;12.43;11.43;;;;;21.00;100687.00;;;;2070636;28;20297;-66
2021/04/20 01:28:09;;;;;;;12.10;11.00;;;;;21.00;100696.00;;;;2063866;28;20680;-66
2021/04/20 01:29:09;;;;;;;11.23;10.27;;;;;21.00;100702.00;;;;2071077;28;21085;-66
2021/04/20 01:30:10;;;;;;;11.30;10.40;;;;;21.00;100697.00;;;;2079934;28;20996;-66
2021/04/20 01:31:12;;;;;;;11.63;10.63;;;;;21.00;100698.00;;;;2080674;28;20718;-65
2021/04/20 01:32:13;;;;;;;11.23;10.23;;;;;21.00;100692.00;;;;2080656;28;20464;-66
2021/04/20 01:33:13;;;;;;;11.98;10.93;;;;;21.00;100698.00;;;;2071866;28;20211;-66
2021/04/20 01:34:14;;;;;;;11.67;10.67;;;;;21.00;100698.00;;;;2055963;28;20216;-66
2021/04/20 01:35:14;;;;;;;11.70;10.70;;;;;21.00;100695.00;;;;2071973;28;20211;-66
2021/04/20 01:36:17;;;;;;;10.90;10.10;;;;;21.00;100683.00;;;;2080812;28;20259;-66
2021/04/20 01:37:17;;;;;;;12.52;11.43;;;;;21.00;100700.00;;;;2079980;28;20210;-66
2021/04/20 01:38:18;;;;;;;11.70;10.67;;;;;21.00;100691.00;;;;2079898;28;21001;-66
2021/04/20 01:39:18;;;;;;;11.70;10.80;;;;;20.90;100699.00;;;;2079746;28;20233;-66
2021/04/20 01:40:19;;;;;;;12.50;11.50;;;;;20.90;100699.00;;;;2071991;28;20779;-65
2021/04/20 01:41:20;;;;;;;10.77;9.87;;;;;20.90;100703.00;;;;2071815;28;20811;-65
2021/04/20 01:42:20;;;;;;;11.57;10.63;;;;;20.90;100702.00;;;;2063257;28;20224;-66
2021/04/20 01:43:20;;;;;;;11.60;10.63;;;;;20.90;100700.00;;;;2055783;28;20463;-66
2021/04/20 01:44:21;;;;;;;11.17;10.27;;;;;20.90;100698.00;;;;2063658;28;20215;-66
2021/04/20 01:45:21;;;;;;;12.00;10.90;;;;;20.90;100702.00;;;;2063839;28;20224;-66
2021/04/20 01:46:21;;;;;;;11.70;10.70;;;;;20.90;100704.00;;;;2080035;28;20241;-67
2021/04/20 01:47:23;;;;;;;11.47;10.47;;;;;20.90;100695.00;;;;2080438;28;20606;-65
2021/04/20 01:48:24;;;;;;;11.02;10.20;;;;;20.90;100694.00;;;;2079607;28;20213;-66
2021/04/20 01:49:24;;;;;;;11.17;10.17;;;;;20.90;100697.00;;;;2063519;28;20616;-66
2021/04/20 01:50:25;;;;;;;12.07;11.07;;;;;20.90;100694.00;;;;2062905;28;20212;-66
2021/04/20 01:51:28;;;;;;;11.37;10.37;;;;;20.90;100693.00;;;;2079842;28;20232;-66
2021/04/20 01:52:29;;;;;;;11.57;10.52;;;;;20.90;100697.00;;;;2080478;28;20464;-66
2021/04/20 01:53:29;;;;;;;10.97;10.07;;;;;20.90;100699.00;;;;2079554;28;20221;-65
2021/04/20 01:54:29;;;;;;;11.70;10.70;;;;;20.90;100691.00;;;;2071774;28;20297;-66
2021/04/20 01:55:30;;;;;;;11.07;10.10;;;;;20.90;100684.00;;;;2071638;28;20772;-66
2021/04/20 01:56:30;;;;;;;11.20;10.30;;;;;20.90;100700.00;;;;2079977;28;20772;-66
2021/04/20 01:57:30;;;;;;;11.37;10.27;;;;;20.90;100677.00;;;;2079830;28;20760;-66
2021/04/20 01:58:32;;;;;;;10.60;9.70;;;;;20.90;100693.00;;;;2063342;28;20216;-66
2021/04/20 01:59:32;;;;;;;12.07;11.07;;;;;20.90;100690.00;;;;2059000;28;20329;-66
2021/04/20 02:00:32;;;;;;;11.40;10.40;;;;;20.90;100691.00;;;;2079966;28;20708;-66
2021/04/20 02:01:33;;;;;;;11.50;10.50;;;;;20.90;100690.00;;;;2079580;28;20716;-66
2021/04/20 02:02:33;;;;;;;11.60;10.60;;;;;20.90;100689.00;;;;2063591;28;20207;-66
2021/04/20 02:03:34;;;;;;;11.40;10.47;;;;;20.90;100694.00;;;;2061241;28;20211;-66
2021/04/20 02:04:34;;;;;;;11.33;10.33;;;;;20.90;100695.00;;;;2071735;28;20221;-66
2021/04/20 02:05:38;;;;;;;10.60;9.70;;;;;20.90;100680.00;;;;2068757;28;20245;-66
2021/04/20 02:06:38;;;;;;;10.43;9.57;;;;;20.90;100689.00;;;;2071926;28;20221;-66
2021/04/20 02:07:38;;;;;;;11.43;10.43;;;;;20.90;100685.00;;;;2071556;28;20592;-66
2021/04/20 02:08:39;;;;;;;10.43;9.53;;;;;20.90;100699.00;;;;2079008;28;20746;-66
2021/04/20 02:09:40;;;;;;;11.40;10.40;;;;;20.90;100693.00;;;;2069751;28;20207;-66
2021/04/20 02:10:40;;;;;;;10.80;9.90;;;;;20.90;100691.00;;;;2063177;28;20235;-66
2021/04/20 02:11:41;;;;;;;10.87;9.97;;;;;20.80;100689.00;;;;2071366;28;20239;-66
2021/04/20 02:12:41;;;;;;;12.40;11.40;;;;;20.80;100687.00;;;;2079853;28;20232;-65
2021/04/20 02:13:42;;;;;;;10.67;9.77;;;;;20.80;100690.00;;;;2071531;28;20230;-66
2021/04/20 02:14:43;;;;;;;10.97;9.97;;;;;20.90;100693.00;;;;2054591;28;20460;-66
2021/04/20 02:15:43;;;;;;;11.27;10.37;;;;;20.80;100687.00;;;;2071263;28;20302;-66
2021/04/20 02:16:43;;;;;;;11.30;10.27;;;;;20.90;100690.00;;;;2070912;28;20310;-66
2021/04/20 02:17:44;;;;;;;10.10;9.33;;;;;20.80;100687.00;;;;2053790;28;20211;-66
2021/04/20 02:18:45;;;;;;;11.00;10.00;;;;;20.80;100695.00;;;;2071414;28;20214;-65
2021/04/20 02:19:45;;;;;;;10.50;9.65;;;;;20.80;100699.00;;;;2066398;28;20223;-66
2021/04/20 02:20:46;;;;;;;10.57;9.70;;;;;20.80;100694.00;;;;2071430;28;20234;-65
2021/04/20 02:21:46;;;;;;;11.07;10.07;;;;;20.80;100698.00;;;;2080365;28;20221;-66
2021/04/20 02:22:49;;;;;;;11.30;10.20;;;;;20.80;100690.00;;;;2071478;28;20377;-66
2021/04/20 02:23:50;;;;;;;10.80;9.80;;;;;20.80;100706.00;;;;2071760;28;20604;-66
2021/04/20 02:24:50;;;;;;;10.87;9.97;;;;;20.80;100693.00;;;;2080290;28;20226;-66
2021/04/20 02:25:51;;;;;;;10.60;9.80;;;;;20.80;100693.00;;;;2079612;28;20258;-66
2021/04/20 02:26:51;;;;;;;11.00;10.10;;;;;20.80;100690.00;;;;2063368;28;20239;-66
2021/04/20 02:27:52;;;;;;;10.87;10.03;;;;;20.80;100696.00;;;;2063484;28;20317;-65
2021/04/20 02:28:55;;;;;;;10.57;9.70;;;;;20.80;100694.00;;;;2072131;28;20215;-66
2021/04/20 02:29:57;;;;;;;10.32;9.52;;;;;20.80;100701.00;;;;2071638;28;20211;-66
2021/04/20 02:30:59;;;;;;;10.98;9.70;;;;;20.80;100696.00;;;;2068432;28;20203;-65
2021/04/20 02:32:00;;;;;;;11.38;10.55;;;;;20.80;100694.00;;;;2079217;28;20321;-66
2021/04/20 02:33:00;;;;;;;11.87;10.83;;;;;20.80;100699.00;;;;2079857;28;20214;-66
2021/04/20 02:34:03;;;;;;;10.30;9.50;;;;;20.80;100689.00;;;;2063290;28;20219;-66
2021/04/20 02:35:05;;;;;;;10.20;9.40;;;;;20.80;100690.00;;;;2067139;28;20214;-66
2021/04/20 02:36:06;;;;;;;11.23;10.30;;;;;20.80;100693.00;;;;2079281;28;20597;-66
2021/04/20 02:37:06;;;;;;;9.87;9.07;;;;;20.80;100687.00;;;;2071264;28;20273;-66
2021/04/20 02:38:07;;;;;;;10.50;9.70;;;;;20.80;100692.00;;;;2063130;28;20686;-66
2021/04/20 02:39:07;;;;;;;10.13;9.33;;;;;20.80;100691.00;;;;2079168;28;20740;-66
2021/04/20 02:40:32;;;;;;;10.43;9.63;;;;;20.80;100691.00;;;;2079274;28;20297;-66
2021/04/20 02:41:32;;;;;;;10.48;9.57;;;;;20.80;100691.00;;;;2067336;28;20227;-66
2021/04/20 02:42:34;;;;;;;10.10;9.20;;;;;20.70;100691.00;;;;2079742;28;20213;-66
2021/04/20 02:43:34;;;;;;;10.95;9.95;;;;;20.80;100692.00;;;;2079467;28;20210;-66
2021/04/20 02:44:34;;;;;;;9.80;9.00;;;;;20.80;100687.00;;;;2075943;28;20735;-66
2021/04/20 02:45:35;;;;;;;10.97;9.97;;;;;20.80;100690.00;;;;2079638;28;20699;-66
2021/04/20 02:46:38;;;;;;;10.10;9.20;;;;;20.70;100692.00;;;;2057498;28;20838;-66
2021/04/20 02:47:39;;;;;;;10.85;9.85;;;;;20.70;100693.00;;;;2055929;28;20225;-66
2021/04/20 02:48:39;;;;;;;10.47;9.60;;;;;20.70;100690.00;;;;2074224;28;20218;-66
2021/04/20 02:49:39;;;;;;;9.93;9.13;;;;;20.70;100697.00;;;;2076322;28;20272;-66
2021/04/20 02:50:40;;;;;;;9.90;9.10;;;;;20.70;100695.00;;;;2070613;28;20223;-65
2021/04/20 02:51:40;;;;;;;11.10;10.10;;;;;20.70;100697.00;;;;2062718;28;20325;-66
2021/04/20 02:52:40;;;;;;;10.33;9.33;;;;;20.70;100690.00;;;;2063331;28;20227;-65
2021/04/20 02:53:41;;;;;;;9.33;8.53;;;;;20.70;100677.00;;;;2071071;28;20210;-66
2021/04/20 02:54:42;;;;;;;9.85;9.15;;;;;20.50;100692.00;;;;2071433;28;20649;-66
2021/04/20 02:55:43;;;;;;;9.80;9.00;;;;;20.70;100691.00;;;;2071270;28;20226;-66
2021/04/20 02:56:43;;;;;;;10.00;9.20;;;;;20.70;100684.00;;;;2079605;28;20221;-66
2021/04/20 02:57:45;;;;;;;9.63;8.80;;;;;20.70;100695.00;;;;2079341;28;20522;-66
2021/04/20 02:58:46;;;;;;;10.07;9.25;;;;;20.70;100693.00;;;;2079563;28;20675;-66
2021/04/20 02:59:46;;;;;;;10.03;9.23;;;;;20.70;100688.00;;;;2070933;28;20223;-66
2021/04/20 03:00:51;;;;;;;10.20;9.40;;;;;20.70;100677.00;;;;2070769;28;20218;-66
2021/04/20 03:01:52;;;;;;;10.40;9.40;;;;;20.70;100686.00;;;;2066210;28;20203;-66
2021/04/20 03:02:56;;;;;;;10.33;9.33;;;;;20.60;100692.00;;;;2063134;28;20219;-66
2021/04/20 03:03:57;;;;;;;10.18;9.38;;;;;20.60;100691.00;;;;2068620;28;20241;-66
2021/04/20 03:04:57;;;;;;;9.93;9.13;;;;;20.70;100687.00;;;;2060478;28;20294;-66
2021/04/20 03:06:00;;;;;;;9.80;9.00;;;;;20.70;100682.00;;;;2059430;28;20238;-66
2021/04/20 03:07:01;;;;;;;9.75;9.05;;;;;20.70;100687.00;;;;2063249;28;20258;-66
2021/04/20 03:08:01;;;;;;;10.07;9.23;;;;;20.70;100684.00;;;;2070499;28;20222;-66
2021/04/20 03:09:02;;;;;;;10.40;9.60;;;;;20.70;100687.00;;;;2062548;28;20251;-66
2021/04/20 03:10:03;;;;;;;10.10;9.27;;;;;20.60;100678.00;;;;2062907;28;20723;-65
2021/04/20 03:11:04;;;;;;;10.00;9.20;;;;;20.60;100688.00;;;;2068681;28;20237;-65
2021/04/20 03:12:05;;;;;;;11.45;10.48;;;;;20.70;100676.00;;;;2071049;28;20241;-66
2021/04/20 03:13:05;;;;;;;9.83;9.03;;;;;20.70;100676.00;;;;2078597;28;20209;-65
2021/04/20 03:14:06;;;;;;;9.90;9.10;;;;;20.70;100675.00;;;;2061939;28;20208;-66
2021/04/20 03:15:08;;;;;;;9.10;8.40;;;;;20.70;100682.00;;;;2054315;28;20259;-65
2021/04/20 03:16:09;;;;;;;9.32;8.50;;;;;20.70;100680.00;;;;2062966;28;20447;-66
2021/04/20 03:17:09;;;;;;;10.50;9.60;;;;;20.60;100677.00;;;;2071114;28;20222;-66
2021/04/20 03:18:10;;;;;;;10.60;9.70;;;;;20.70;100682.00;;;;2079275;28;20453;-66
2021/04/20 03:19:10;;;;;;;9.63;8.83;;;;;20.70;100672.00;;;;2079541;28;20216;-66
2021/04/20 03:20:11;;;;;;;9.47;8.57;;;;;20.70;100682.00;;;;2079252;28;20816;-66
2021/04/20 03:21:13;;;;;;;10.37;9.37;;;;;20.70;100675.00;;;;2079358;28;20653;-66
2021/04/20 03:22:14;;;;;;;10.23;9.23;;;;;20.60;100680.00;;;;2071071;28;20639;-66
2021/04/20 03:23:14;;;;;;;9.17;8.53;;;;;20.60;100677.00;;;;2063235;28;20218;-66
2021/04/20 03:24:57;;;;;;;9.83;8.93;;;;;20.60;100679.00;;;;2071072;28;20218;-66
2021/04/20 03:25:58;;;;;;;10.10;9.10;;;;;20.60;100674.00;;;;2062992;28;20226;-66
2021/04/20 03:26:58;;;;;;;9.67;8.90;;;;;20.60;100677.00;;;;2062894;28;20207;-66
2021/04/20 03:27:59;;;;;;;9.47;8.67;;;;;20.60;100679.00;;;;2062902;28;20454;-66
2021/04/20 03:29:00;;;;;;;8.77;8.10;;;;;20.60;100675.00;;;;2069257;28;20258;-66
2021/04/20 03:30:01;;;;;;;9.40;8.63;;;;;20.60;100681.00;;;;2054496;28;20282;-66
2021/04/20 03:31:02;;;;;;;9.57;8.77;;;;;20.60;100677.00;;;;2060368;28;20349;-66
2021/04/20 03:32:02;;;;;;;9.47;8.60;;;;;20.60;100680.00;;;;2079202;28;20460;-66
2021/04/20 03:33:13;;;;;;;10.00;9.20;;;;;20.60;100678.00;;;;2079966;28;20680;-65
2021/04/20 03:34:18;;;;;;;9.73;8.90;;;;;20.60;100661.00;;;;2067047;28;20297;-65
2021/04/20 03:35:26;;;;;;;9.98;9.10;;;;;20.60;100675.00;;;;2066470;28;20210;-66
2021/04/20 03:36:31;;;;;;;9.23;8.43;;;;;20.60;100678.00;;;;2078683;28;20214;-66
2021/04/20 03:37:46;;;;;;;9.45;8.73;;;;;20.60;100673.00;;;;2078973;28;20250;-65
2021/04/20 03:39:03;;;;;;;8.88;8.18;;;;;20.60;100674.00;;;;2072600;28;20214;-66
2021/04/20 03:40:05;;;;;;;9.77;8.88;;;;;20.60;100673.00;;;;2065654;28;20223;-66
2021/04/20 03:41:10;;;;;;;8.60;7.90;;;;;20.60;100672.00;;;;2061591;28;20289;-66
2021/04/20 03:42:15;;;;;;;9.90;8.98;;;;;20.60;100673.00;;;;2064075;28;20259;-66
2021/04/20 03:43:16;;;;;;;8.45;7.75;;;;;20.50;100673.00;;;;2071297;28;20783;-66
2021/04/20 03:44:21;;;;;;;9.07;8.37;;;;;20.60;100669.00;;;;2062733;28;20219;-66
2021/04/20 03:45:29;;;;;;;10.18;9.35;;;;;20.50;100658.00;;;;2060443;28;20574;-66
2021/04/20 03:46:34;;;;;;;9.18;8.40;;;;;20.60;100665.00;;;;2064088;28;20828;-66
2021/04/20 03:47:40;;;;;;;9.00;8.20;;;;;20.50;100662.00;;;;2064048;28;20215;-66
2021/04/20 03:48:43;;;;;;;9.10;8.35;;;;;20.60;100664.00;;;;2078712;28;20222;-65
2021/04/20 03:49:43;;;;;;;9.38;8.68;;;;;20.50;100661.00;;;;2076634;28;20291;-66
2021/04/20 03:50:51;;;;;;;9.70;8.90;;;;;20.50;100660.00;;;;2062230;28;20769;-66
2021/04/20 03:51:51;;;;;;;8.60;8.00;;;;;20.60;100652.00;;;;2064524;28;20226;-66
2021/04/20 03:52:54;;;;;;;9.37;8.60;;;;;20.60;100659.00;;;;2071073;28;20319;-66
2021/04/20 03:53:56;;;;;;;8.77;8.07;;;;;20.60;100668.00;;;;2071135;28;20461;-66
2021/04/20 03:54:56;;;;;;;9.75;8.88;;;;;20.50;100659.00;;;;2062926;28;20211;-66
2021/04/20 03:55:56;;;;;;;8.87;8.17;;;;;20.50;100648.00;;;;2062728;28;20290;-66
2021/04/20 03:56:58;;;;;;;8.90;8.20;;;;;20.50;100655.00;;;;2062643;28;20208;-66
2021/04/20 03:57:58;;;;;;;8.00;7.22;;;;;20.50;100658.00;;;;2070788;28;20214;-66
2021/04/20 03:59:03;;;;;;;8.47;7.83;;;;;20.50;100658.00;;;;2070581;28;20238;-65
2021/04/20 04:00:04;;;;;;;8.98;8.27;;;;;20.50;100654.00;;;;2060381;28;20231;-66
2021/04/20 04:01:10;;;;;;;8.85;8.05;;;;;20.50;100661.00;;;;2070531;28;20218;-66
2021/04/20 04:02:11;;;;;;;9.40;8.52;;;;;20.50;100615.00;;;;2071507;28;20301;-66
2021/04/20 04:03:12;;;;;;;9.00;8.30;;;;;20.50;100662.00;;;;2070329;28;20245;-66
2021/04/20 04:04:15;;;;;;;9.17;8.47;;;;;20.50;100650.00;;;;2070800;28;20485;-65
2021/04/20 04:05:17;;;;;;;8.90;8.20;;;;;20.50;100661.00;;;;2070635;28;20221;-65
2021/04/20 04:06:20;;;;;;;8.73;8.13;;;;;20.50;100655.00;;;;2068150;28;20217;-66
2021/04/20 04:07:20;;;;;;;8.70;8.00;;;;;20.50;100653.00;;;;2058784;28;20211;-66
2021/04/20 04:08:20;;;;;;;9.30;8.50;;;;;20.50;100654.00;;;;2062409;28;20306;-66
2021/04/20 04:09:21;;;;;;;8.93;8.23;;;;;20.50;100652.00;;;;2070153;28;20220;-65
2021/04/20 04:10:21;;;;;;;8.60;8.00;;;;;20.50;100654.00;;;;2077688;28;20460;-65
2021/04/20 04:11:22;;;;;;;8.63;7.93;;;;;20.50;100648.00;;;;2078521;28;20238;-65
2021/04/20 04:12:22;;;;;;;9.10;8.40;;;;;20.50;100652.00;;;;2069306;28;20222;-66
2021/04/20 04:13:25;;;;;;;9.00;8.30;;;;;20.50;100661.00;;;;2070683;28;20592;-65
2021/04/20 04:14:27;;;;;;;8.88;8.15;;;;;20.50;100656.00;;;;2078681;28;20206;-66
2021/04/20 04:15:27;;;;;;;8.93;8.23;;;;;20.50;100648.00;;;;2078886;28;20218;-66
2021/04/20 04:16:27;;;;;;;9.30;8.50;;;;;20.50;100650.00;;;;2070220;28;20222;-66
2021/04/20 04:17:28;;;;;;;8.27;7.57;;;;;20.50;100664.00;;;;2054749;28;20212;-66
2021/04/20 04:18:29;;;;;;;7.83;7.23;;;;;20.50;100659.00;;;;2062545;28;20214;-65
2021/04/20 04:19:38;;;;;;;9.27;8.48;;;;;20.50;100656.00;;;;2070525;28;20227;-66
2021/04/20 04:20:39;;;;;;;8.50;7.80;;;;;20.50;100656.00;;;;2071874;28;20701;-66
2021/04/20 04:21:44;;;;;;;9.07;8.30;;;;;20.50;100656.00;;;;2078891;28;20217;-66
2021/04/20 04:22:58;;;;;;;8.32;7.63;;;;;20.50;100665.00;;;;2079424;28;20213;-65
2021/04/20 04:24:01;;;;;;;8.13;7.43;;;;;20.50;100655.00;;;;2078553;28;20619;-66
2021/04/20 04:25:02;;;;;;;8.13;7.40;;;;;20.40;100659.00;;;;2077864;28;20304;-66
2021/04/20 04:26:04;;;;;;;8.68;7.97;;;;;20.50;100658.00;;;;2078525;28;20240;-65
2021/04/20 04:27:05;;;;;;;9.35;8.55;;;;;20.40;100651.00;;;;2078625;28;20256;-66
2021/04/20 04:28:06;;;;;;;8.63;7.97;;;;;20.40;100646.00;;;;2078698;28;20651;-65
2021/04/20 04:29:08;;;;;;;8.20;7.60;;;;;20.50;100655.00;;;;2078546;28;20214;-66
2021/04/20 04:30:09;;;;;;;8.32;7.68;;;;;20.40;100631.00;;;;2062283;28;20718;-66
2021/04/20 04:31:10;;;;;;;9.50;8.80;;;;;20.40;100655.00;;;;2062633;28;20318;-66
2021/04/20 04:32:11;;;;;;;8.47;7.80;;;;;20.40;100629.00;;;;2062424;28;20223;-66
2021/04/20 04:33:12;;;;;;;8.00;7.30;;;;;20.40;100652.00;;;;2054361;28;20232;-66
2021/04/20 04:34:13;;;;;;;9.00;8.30;;;;;20.40;100655.00;;;;2070807;28;20286;-66
2021/04/20 04:35:13;;;;;;;8.77;8.03;;;;;20.40;100656.00;;;;2072828;28;20518;-66
2021/04/20 04:36:14;;;;;;;9.00;8.30;;;;;20.40;100658.00;;;;2078729;28;21013;-66
2021/04/20 04:37:15;;;;;;;8.10;7.50;;;;;20.40;100646.00;;;;2079335;28;20220;-65
2021/04/20 04:38:15;;;;;;;8.20;7.60;;;;;20.40;100655.00;;;;2078646;28;20206;-66
2021/04/20 04:39:17;;;;;;;8.40;7.70;;;;;20.40;100655.00;;;;2070322;28;20446;-65
2021/04/20 04:40:18;;;;;;;8.18;7.57;;;;;20.40;100654.00;;;;2067014;28;20302;-66
2021/04/20 04:41:18;;;;;;;8.23;7.60;;;;;20.40;100649.00;;;;2078737;28;20210;-66
2021/04/20 04:42:19;;;;;;;8.90;8.20;;;;;20.40;100650.00;;;;2070620;28;20785;-66
2021/04/20 04:43:19;;;;;;;8.00;7.40;;;;;20.40;100651.00;;;;2070450;28;20230;-66
2021/04/20 04:44:19;;;;;;;8.50;7.80;;;;;20.40;100654.00;;;;2077776;28;20305;-66
2021/04/20 04:45:20;;;;;;;7.83;7.23;;;;;20.40;100655.00;;;;2077975;28;20261;-65
2021/04/20 04:46:21;;;;;;;8.23;7.53;;;;;20.40;100641.00;;;;2070663;28;20225;-66
2021/04/20 04:47:21;;;;;;;8.70;8.00;;;;;20.40;100646.00;;;;2070654;28;20242;-66
2021/04/20 04:48:22;;;;;;;7.87;7.23;;;;;20.40;100647.00;;;;2066639;28;21051;-66
2021/04/20 04:49:22;;;;;;;8.23;7.60;;;;;20.40;100653.00;;;;2054237;28;20287;-66
2021/04/20 04:50:23;;;;;;;8.07;7.33;;;;;20.40;100650.00;;;;2070370;28;20214;-66
2021/04/20 04:51:24;;;;;;;8.53;7.83;;;;;20.40;100652.00;;;;2069614;28;20214;-66
2021/04/20 04:52:24;;;;;;;7.40;6.80;;;;;20.40;100654.00;;;;2070694;28;20217;-66
2021/04/20 04:53:25;;;;;;;8.00;7.20;;;;;20.40;100653.00;;;;2066602;28;20282;-66
2021/04/20 04:54:25;;;;;;;8.07;7.37;;;;;20.40;100655.00;;;;2070410;28;20222;-66
2021/04/20 04:55:26;;;;;;;8.10;7.50;;;;;20.40;100649.00;;;;2054300;28;20724;-66
2021/04/20 04:56:26;;;;;;;8.00;7.30;;;;;20.40;100655.00;;;;2062123;28;20223;-66
2021/04/20 04:57:27;;;;;;;7.80;7.20;;;;;20.40;100655.00;;;;2078734;28;20217;-65
2021/04/20 04:58:30;;;;;;;7.70;7.10;;;;;20.40;100658.00;;;;2078249;28;20246;-66
2021/04/20 04:59:30;;;;;;;7.97;7.38;;;;;20.40;100658.00;;;;2070187;28;20756;-65
2021/04/20 05:00:31;;;;;;;7.77;7.17;;;;;20.40;100652.00;;;;2051225;28;20304;-66